createdAt,value
2022-10-04T00:00:01.983Z,995.98
2022-10-04T00:01:01.944Z,995.95
2022-10-04T00:02:01.988Z,995.94
2022-10-04T00:03:01.988Z,995.95
2022-10-04T00:04:01.925Z,995.96
2022-10-04T00:05:02.012Z,995.97
2022-10-04T00:06:02.118Z,995.98
2022-10-04T00:07:01.916Z,996.00
2022-10-04T00:08:01.892Z,996.01
2022-10-04T00:09:01.909Z,996.02
2022-10-04T00:10:01.885Z,996.04
2022-10-04T00:11:01.866Z,996.05
2022-10-04T00:12:02.025Z,996.05
2022-10-04T00:13:01.835Z,996.04
2022-10-04T00:14:01.837Z,996.03
2022-10-04T00:15:01.824Z,996.02
2022-10-04T00:16:01.866Z,996.02
2022-10-04T00:17:01.829Z,996.02
2022-10-04T00:18:01.848Z,996.03
2022-10-04T00:19:01.804Z,996.02
2022-10-04T00:20:01.844Z,996.02
2022-10-04T00:21:01.779Z,996.01
2022-10-04T00:22:01.776Z,996.00
2022-10-04T00:23:01.762Z,996.00
2022-10-04T00:24:01.780Z,995.99
2022-10-04T00:25:01.746Z,995.99
2022-10-04T00:26:01.746Z,996.00
2022-10-04T00:27:01.724Z,996.00
2022-10-04T00:28:01.787Z,996.00
2022-10-04T00:29:01.706Z,996.01
2022-10-04T00:30:01.730Z,996.01
2022-10-04T00:31:01.775Z,996.02
2022-10-04T00:32:01.688Z,996.03
2022-10-04T00:33:01.667Z,996.03
2022-10-04T00:34:01.662Z,996.02
2022-10-04T00:35:01.669Z,996.02
2022-10-04T00:36:01.662Z,996.02
2022-10-04T00:37:01.646Z,996.02
2022-10-04T00:38:01.633Z,996.02
2022-10-04T00:39:01.627Z,996.02
2022-10-04T00:40:01.640Z,996.04
2022-10-04T00:41:01.651Z,996.06
2022-10-04T00:42:01.593Z,996.09
2022-10-04T00:43:01.579Z,996.10
2022-10-04T00:44:01.573Z,996.10
2022-10-04T00:45:01.562Z,996.09
2022-10-04T00:46:01.633Z,996.07
2022-10-04T00:47:01.563Z,996.06
2022-10-04T00:48:01.685Z,996.05
2022-10-04T00:49:01.529Z,996.03
2022-10-04T00:50:01.514Z,996.00
2022-10-04T00:51:01.502Z,995.96
2022-10-04T00:52:01.529Z,995.92
2022-10-04T00:53:01.487Z,995.91
2022-10-04T00:54:01.487Z,995.90
2022-10-04T00:55:01.477Z,995.90
2022-10-04T00:56:01.461Z,995.90
2022-10-04T00:57:01.480Z,995.89
2022-10-04T00:58:01.440Z,995.88
2022-10-04T00:59:01.436Z,995.87
2022-10-04T01:00:01.423Z,995.86
2022-10-04T01:01:01.451Z,995.86
2022-10-04T01:02:01.469Z,995.85
2022-10-04T01:03:01.428Z,995.83
2022-10-04T01:04:01.394Z,995.79
2022-10-04T01:05:01.381Z,995.75
2022-10-04T01:06:01.372Z,995.71
2022-10-04T01:07:01.354Z,995.68
2022-10-04T01:08:01.377Z,995.66
2022-10-04T01:09:01.375Z,995.66
2022-10-04T01:10:01.340Z,995.65
2022-10-04T01:11:01.344Z,995.65
2022-10-04T01:12:01.312Z,995.64
2022-10-04T01:13:01.330Z,995.64
2022-10-04T01:14:01.311Z,995.65
2022-10-04T01:15:01.293Z,995.65
2022-10-04T01:16:01.342Z,995.66
2022-10-04T01:17:01.284Z,995.64
2022-10-04T01:18:02.059Z,995.62
2022-10-04T01:19:01.283Z,995.60
2022-10-04T01:20:01.255Z,995.58
2022-10-04T01:21:01.246Z,995.57
2022-10-04T01:22:01.241Z,995.55
2022-10-04T01:23:01.222Z,995.53
2022-10-04T01:24:01.251Z,995.51
2022-10-04T01:25:01.204Z,995.50
2022-10-04T01:26:01.198Z,995.50
2022-10-04T01:27:01.187Z,995.51
2022-10-04T01:28:01.234Z,995.51
2022-10-04T01:29:01.195Z,995.51
2022-10-04T01:30:01.157Z,995.51
2022-10-04T01:31:01.178Z,995.52
2022-10-04T01:32:01.152Z,995.54
2022-10-04T01:33:01.158Z,995.55
2022-10-04T01:34:01.138Z,995.56
2022-10-04T01:35:01.123Z,995.57
2022-10-04T01:36:01.114Z,995.56
2022-10-04T01:37:01.124Z,995.55
2022-10-04T01:38:01.100Z,995.54
2022-10-04T01:39:01.079Z,995.54
2022-10-04T01:40:01.081Z,995.55
2022-10-04T01:41:01.077Z,995.56
2022-10-04T01:42:01.066Z,995.58
2022-10-04T01:43:01.064Z,995.58
2022-10-04T01:44:01.045Z,995.58
2022-10-04T01:45:01.030Z,995.56
2022-10-04T01:46:01.046Z,995.55
2022-10-04T01:47:01.015Z,995.53
2022-10-04T01:48:01.014Z,995.52
2022-10-04T01:49:01.071Z,995.51
2022-10-04T01:50:00.999Z,995.50
2022-10-04T01:51:00.975Z,995.48
2022-10-04T01:52:00.965Z,995.49
2022-10-04T01:53:00.970Z,995.49
2022-10-04T01:54:00.971Z,995.49
2022-10-04T01:55:00.951Z,995.48
2022-10-04T01:56:00.955Z,995.47
2022-10-04T01:57:00.928Z,995.46
2022-10-04T01:58:00.925Z,995.44
2022-10-04T01:59:00.955Z,995.42
2022-10-04T02:00:00.925Z,995.42
2022-10-04T02:01:00.941Z,995.42
2022-10-04T02:02:00.888Z,995.43
2022-10-04T02:03:00.874Z,995.45
2022-10-04T02:04:00.945Z,995.46
2022-10-04T02:05:00.919Z,995.47
2022-10-04T02:06:00.869Z,995.46
2022-10-04T02:07:00.844Z,995.45
2022-10-04T02:08:00.851Z,995.46
2022-10-04T02:09:00.846Z,995.47
2022-10-04T02:10:00.832Z,995.49
2022-10-04T02:11:00.807Z,995.49
2022-10-04T02:12:00.799Z,995.50
2022-10-04T02:13:00.818Z,995.51
2022-10-04T02:14:00.837Z,995.51
2022-10-04T02:15:00.770Z,995.52
2022-10-04T02:16:00.806Z,995.52
2022-10-04T02:17:00.757Z,995.50
2022-10-04T02:18:00.760Z,995.46
2022-10-04T02:19:00.756Z,995.40
2022-10-04T02:20:00.744Z,995.34
2022-10-04T02:21:00.784Z,995.30
2022-10-04T02:22:00.707Z,995.27
2022-10-04T02:23:00.698Z,995.26
2022-10-04T02:24:00.687Z,995.27
2022-10-04T02:25:00.701Z,995.28
2022-10-04T02:26:00.719Z,995.27
2022-10-04T02:27:00.679Z,995.26
2022-10-04T02:28:00.714Z,995.23
2022-10-04T02:29:00.656Z,995.18
2022-10-04T02:30:00.642Z,995.13
2022-10-04T02:31:00.745Z,995.06
2022-10-04T02:32:00.679Z,995.00
2022-10-04T02:33:00.707Z,994.94
2022-10-04T02:34:00.612Z,994.88
2022-10-04T02:35:00.596Z,994.86
2022-10-04T02:36:00.602Z,994.85
2022-10-04T02:37:00.607Z,994.87
2022-10-04T02:38:00.578Z,994.91
2022-10-04T02:39:00.560Z,994.93
2022-10-04T02:40:00.555Z,994.95
2022-10-04T02:41:00.540Z,994.97
2022-10-04T02:42:00.563Z,994.96
2022-10-04T02:43:00.556Z,994.95
2022-10-04T02:44:00.572Z,994.93
2022-10-04T02:45:00.515Z,994.93
2022-10-04T02:46:00.603Z,994.93
2022-10-04T02:47:00.505Z,994.95
2022-10-04T02:48:00.485Z,994.96
2022-10-04T02:49:00.767Z,994.97
2022-10-04T02:50:00.468Z,994.97
2022-10-04T02:51:00.504Z,994.96
2022-10-04T02:52:00.456Z,994.94
2022-10-04T02:53:00.445Z,994.93
2022-10-04T02:54:03.325Z,994.93
2022-10-04T02:55:00.461Z,994.94
2022-10-04T02:56:00.424Z,994.95
2022-10-04T02:57:00.423Z,994.97
2022-10-04T02:58:00.405Z,994.97
2022-10-04T02:59:00.393Z,994.96
2022-10-04T03:00:00.382Z,994.96
2022-10-04T03:01:00.446Z,994.96
2022-10-04T03:02:00.422Z,994.97
2022-10-04T03:03:00.369Z,994.97
2022-10-04T03:04:00.347Z,994.96
2022-10-04T03:05:00.337Z,994.96
2022-10-04T03:06:00.327Z,994.98
2022-10-04T03:07:00.354Z,995.02
2022-10-04T03:08:00.313Z,995.04
2022-10-04T03:09:00.310Z,995.05
2022-10-04T03:10:00.298Z,995.04
2022-10-04T03:11:00.298Z,995.02
2022-10-04T03:12:00.327Z,994.99
2022-10-04T03:13:00.295Z,994.96
2022-10-04T03:14:00.264Z,994.93
2022-10-04T03:15:00.251Z,994.90
2022-10-04T03:16:00.312Z,994.88
2022-10-04T03:17:00.236Z,994.86
2022-10-04T03:18:00.357Z,994.84
2022-10-04T03:19:00.265Z,994.81
2022-10-04T03:20:00.215Z,994.79
2022-10-04T03:21:00.200Z,994.77
2022-10-04T03:22:00.182Z,994.77
2022-10-04T03:23:00.198Z,994.77
2022-10-04T03:24:00.212Z,994.79
2022-10-04T03:25:00.241Z,994.79
2022-10-04T03:26:00.182Z,994.78
2022-10-04T03:27:00.158Z,994.78
2022-10-04T03:28:00.259Z,994.76
2022-10-04T03:29:00.139Z,994.76
2022-10-04T03:30:00.162Z,994.75
2022-10-04T03:31:00.206Z,994.75
2022-10-04T03:32:00.158Z,994.75
2022-10-04T03:33:00.372Z,994.77
2022-10-04T03:34:00.099Z,994.78
2022-10-04T03:35:00.126Z,994.78
2022-10-04T03:36:00.076Z,994.77
2022-10-04T03:37:00.081Z,994.75
2022-10-04T03:38:00.058Z,994.71
2022-10-04T03:39:00.055Z,994.65
2022-10-04T03:40:00.047Z,994.60
2022-10-04T03:41:00.105Z,994.58
2022-10-04T03:42:00.025Z,994.59
2022-10-04T03:43:00.012Z,994.62
2022-10-04T03:44:04.151Z,994.66
2022-10-04T03:45:01.002Z,994.68
2022-10-04T03:46:00.048Z,994.69
2022-10-04T03:47:00.004Z,994.70
2022-10-04T03:48:00.021Z,994.71
2022-10-04T03:48:59.981Z,994.73
2022-10-04T03:49:59.951Z,994.73
2022-10-04T03:50:59.965Z,994.72
2022-10-04T03:51:59.993Z,994.71
2022-10-04T03:52:59.936Z,994.72
2022-10-04T03:53:59.924Z,994.74
2022-10-04T03:54:59.918Z,994.76
2022-10-04T03:56:04.050Z,994.75
2022-10-04T03:57:00.026Z,994.75
2022-10-04T03:57:59.932Z,994.74
2022-10-04T03:58:59.883Z,994.72
2022-10-04T03:59:59.869Z,994.72
2022-10-04T04:00:59.908Z,994.72
2022-10-04T04:02:00.047Z,994.72
2022-10-04T04:02:59.851Z,994.71
2022-10-04T04:03:59.835Z,994.71
2022-10-04T04:04:59.850Z,994.72
2022-10-04T04:05:59.855Z,994.75
2022-10-04T04:06:59.817Z,994.80
2022-10-04T04:07:59.806Z,994.84
2022-10-04T04:08:59.793Z,994.87
2022-10-04T04:09:59.835Z,994.89
2022-10-04T04:10:59.809Z,994.88
2022-10-04T04:11:59.774Z,994.83
2022-10-04T04:12:59.770Z,994.77
2022-10-04T04:13:59.764Z,994.70
2022-10-04T04:14:59.750Z,994.64
2022-10-04T04:15:59.780Z,994.60
2022-10-04T04:16:59.754Z,994.59
2022-10-04T04:17:59.723Z,994.61
2022-10-04T04:18:59.721Z,994.63
2022-10-04T04:20:03.469Z,994.65
2022-10-04T04:21:00.719Z,994.67
2022-10-04T04:21:59.695Z,994.68
2022-10-04T04:22:59.703Z,994.70
2022-10-04T04:23:59.705Z,994.72
2022-10-04T04:24:59.659Z,994.75
2022-10-04T04:25:59.655Z,994.77
2022-10-04T04:26:59.652Z,994.79
2022-10-04T04:27:59.712Z,994.81
2022-10-04T04:28:59.665Z,994.82
2022-10-04T04:29:59.634Z,994.82
2022-10-04T04:30:59.616Z,994.81
2022-10-04T04:31:59.735Z,994.80
2022-10-04T04:32:59.599Z,994.78
2022-10-04T04:33:59.598Z,994.76
2022-10-04T04:34:59.606Z,994.74
2022-10-04T04:35:59.609Z,994.73
2022-10-04T04:36:59.574Z,994.74
2022-10-04T04:37:59.564Z,994.75
2022-10-04T04:38:59.570Z,994.76
2022-10-04T04:39:59.541Z,994.76
2022-10-04T04:40:59.562Z,994.76
2022-10-04T04:41:59.522Z,994.76
2022-10-04T04:42:59.517Z,994.77
2022-10-04T04:43:59.503Z,994.77
2022-10-04T04:44:59.497Z,994.76
2022-10-04T04:46:25.466Z,994.75
2022-10-04T04:47:00.847Z,994.74
2022-10-04T04:47:59.484Z,994.74
2022-10-04T04:48:59.476Z,994.74
2022-10-04T04:49:59.488Z,994.74
2022-10-04T04:50:59.465Z,994.72
2022-10-04T04:51:59.456Z,994.68
2022-10-04T04:52:59.468Z,994.64
2022-10-04T04:53:59.442Z,994.60
2022-10-04T04:54:59.438Z,994.58
2022-10-04T04:56:04.311Z,994.58
2022-10-04T04:57:00.411Z,994.58
2022-10-04T04:57:59.407Z,994.58
2022-10-04T04:58:59.442Z,994.57
2022-10-04T04:59:59.406Z,994.55
2022-10-04T05:00:59.472Z,994.55
2022-10-04T05:01:59.415Z,994.55
2022-10-04T05:02:59.365Z,994.56
2022-10-04T05:03:59.352Z,994.56
2022-10-04T05:04:59.368Z,994.57
2022-10-04T05:05:59.326Z,994.59
2022-10-04T05:06:59.323Z,994.60
2022-10-04T05:07:59.308Z,994.61
2022-10-04T05:08:59.311Z,994.60
2022-10-04T05:09:59.303Z,994.60
2022-10-04T05:10:59.329Z,994.60
2022-10-04T05:11:59.286Z,994.60
2022-10-04T05:12:59.283Z,994.62
2022-10-04T05:13:59.283Z,994.63
2022-10-04T05:14:59.267Z,994.64
2022-10-04T05:15:59.289Z,994.65
2022-10-04T05:16:59.321Z,994.64
2022-10-04T05:17:59.242Z,994.63
2022-10-04T05:18:59.231Z,994.61
2022-10-04T05:19:59.234Z,994.58
2022-10-04T05:20:59.224Z,994.56
2022-10-04T05:21:59.220Z,994.55
2022-10-04T05:22:59.200Z,994.54
2022-10-04T05:23:59.180Z,994.54
2022-10-04T05:24:59.169Z,994.53
2022-10-04T05:25:59.157Z,994.54
2022-10-04T05:26:59.158Z,994.55
2022-10-04T05:27:59.287Z,994.55
2022-10-04T05:28:59.192Z,994.56
2022-10-04T05:29:59.169Z,994.57
2022-10-04T05:30:59.125Z,994.59
2022-10-04T05:31:59.242Z,994.61
2022-10-04T05:32:59.109Z,994.62
2022-10-04T05:33:59.149Z,994.63
2022-10-04T05:34:59.094Z,994.65
2022-10-04T05:35:59.090Z,994.66
2022-10-04T05:36:59.103Z,994.67
2022-10-04T05:37:59.221Z,994.68
2022-10-04T05:38:59.181Z,994.68
2022-10-04T05:39:59.059Z,994.69
2022-10-04T05:40:59.140Z,994.71
2022-10-04T05:41:59.103Z,994.72
2022-10-04T05:42:59.054Z,994.73
2022-10-04T05:43:59.074Z,994.75
2022-10-04T05:44:59.090Z,994.76
2022-10-04T05:45:59.133Z,994.77
2022-10-04T05:46:59.077Z,994.76
2022-10-04T05:47:58.995Z,994.76
2022-10-04T05:48:59.043Z,994.76
2022-10-04T05:49:58.995Z,994.75
2022-10-04T05:50:59.114Z,994.74
2022-10-04T05:51:59.020Z,994.72
2022-10-04T05:52:59.207Z,994.70
2022-10-04T05:53:59.050Z,994.67
2022-10-04T05:54:59.000Z,994.65
2022-10-04T05:55:58.937Z,994.63
2022-10-04T05:56:58.933Z,994.61
2022-10-04T05:57:58.948Z,994.59
2022-10-04T05:58:58.909Z,994.58
2022-10-04T06:00:03.917Z,994.57
2022-10-04T06:00:59.970Z,994.56
2022-10-04T06:01:59.020Z,994.55
2022-10-04T06:02:59.010Z,994.55
2022-10-04T06:03:58.984Z,994.55
2022-10-04T06:04:59.105Z,994.56
2022-10-04T06:05:59.034Z,994.57
2022-10-04T06:06:58.870Z,994.58
2022-10-04T06:07:58.821Z,994.59
2022-10-04T06:08:58.811Z,994.60
2022-10-04T06:09:58.799Z,994.61
2022-10-04T06:10:58.810Z,994.62
2022-10-04T06:11:58.805Z,994.63
2022-10-04T06:12:58.764Z,994.64
2022-10-04T06:13:58.761Z,994.65
2022-10-04T06:14:58.748Z,994.64
2022-10-04T06:15:58.751Z,994.61
2022-10-04T06:16:58.845Z,994.57
2022-10-04T06:17:58.753Z,994.53
2022-10-04T06:18:58.733Z,994.49
2022-10-04T06:19:58.780Z,994.47
2022-10-04T06:20:58.699Z,994.47
2022-10-04T06:21:58.708Z,994.47
2022-10-04T06:22:58.696Z,994.48
2022-10-04T06:23:58.698Z,994.50
2022-10-04T06:24:58.671Z,994.52
2022-10-04T06:25:58.653Z,994.54
2022-10-04T06:26:58.659Z,994.58
2022-10-04T06:27:58.713Z,994.61
2022-10-04T06:28:58.656Z,994.62
2022-10-04T06:29:58.652Z,994.61
2022-10-04T06:30:58.731Z,994.62
2022-10-04T06:31:58.615Z,994.63
2022-10-04T06:32:58.882Z,994.64
2022-10-04T06:33:58.622Z,994.65
2022-10-04T06:34:58.610Z,994.65
2022-10-04T06:35:58.587Z,994.66
2022-10-04T06:36:58.576Z,994.67
2022-10-04T06:37:58.568Z,994.68
2022-10-04T06:39:03.315Z,994.69
2022-10-04T06:39:59.578Z,994.71
2022-10-04T06:40:58.596Z,994.72
2022-10-04T06:41:58.536Z,994.72
2022-10-04T06:42:58.565Z,994.71
2022-10-04T06:43:58.528Z,994.71
2022-10-04T06:44:58.499Z,994.71
2022-10-04T06:45:58.726Z,994.70
2022-10-04T06:46:58.991Z,994.69
2022-10-04T06:47:58.478Z,994.68
2022-10-04T06:48:58.481Z,994.66
2022-10-04T06:49:58.465Z,994.64
2022-10-04T06:50:58.488Z,994.64
2022-10-04T06:51:58.449Z,994.65
2022-10-04T06:52:58.436Z,994.66
2022-10-04T06:53:58.432Z,994.67
2022-10-04T06:54:58.421Z,994.70
2022-10-04T06:55:58.409Z,994.73
2022-10-04T06:56:58.463Z,994.75
2022-10-04T06:57:58.413Z,994.78
2022-10-04T06:58:58.477Z,994.79
2022-10-04T06:59:58.399Z,994.79
2022-10-04T07:01:00.238Z,994.79
2022-10-04T07:01:58.970Z,994.78
2022-10-04T07:02:58.439Z,994.78
2022-10-04T07:03:58.345Z,994.79
2022-10-04T07:05:13.743Z,994.79
2022-10-04T07:05:59.332Z,994.79
2022-10-04T07:06:58.345Z,994.79
2022-10-04T07:07:58.340Z,994.79
2022-10-04T07:08:58.302Z,994.80
2022-10-04T07:09:58.336Z,994.82
2022-10-04T07:10:58.293Z,994.83
2022-10-04T07:11:58.300Z,994.85
2022-10-04T07:12:58.263Z,994.87
2022-10-04T07:13:58.336Z,994.89
2022-10-04T07:14:58.261Z,994.92
2022-10-04T07:15:58.302Z,994.94
2022-10-04T07:16:58.241Z,994.97
2022-10-04T07:17:58.229Z,994.98
2022-10-04T07:18:58.223Z,994.97
2022-10-04T07:19:58.229Z,994.97
2022-10-04T07:20:58.198Z,994.96
2022-10-04T07:21:58.204Z,994.96
2022-10-04T07:22:58.172Z,994.96
2022-10-04T07:23:58.252Z,994.97
2022-10-04T07:24:58.154Z,994.97
2022-10-04T07:25:58.201Z,994.98
2022-10-04T07:26:58.145Z,994.99
2022-10-04T07:27:58.216Z,995.01
2022-10-04T07:28:58.120Z,995.02
2022-10-04T07:29:58.125Z,995.01
2022-10-04T07:30:58.316Z,995.01
2022-10-04T07:31:58.197Z,995.00
2022-10-04T07:32:58.096Z,995.00
2022-10-04T07:33:58.104Z,995.02
2022-10-04T07:34:58.174Z,995.02
2022-10-04T07:35:58.098Z,995.03
2022-10-04T07:36:58.062Z,995.03
2022-10-04T07:37:58.198Z,995.03
2022-10-04T07:38:58.034Z,995.03
2022-10-04T07:39:58.028Z,995.03
2022-10-04T07:40:58.040Z,995.04
2022-10-04T07:41:58.062Z,995.05
2022-10-04T07:42:58.083Z,995.05
2022-10-04T07:43:58.056Z,995.05
2022-10-04T07:44:57.987Z,995.06
2022-10-04T07:45:58.008Z,995.06
2022-10-04T07:46:58.043Z,995.07
2022-10-04T07:47:57.988Z,995.08
2022-10-04T07:48:57.956Z,995.09
2022-10-04T07:49:57.954Z,995.10
2022-10-04T07:50:57.922Z,995.09
2022-10-04T07:51:57.976Z,995.08
2022-10-04T07:52:57.926Z,995.06
2022-10-04T07:53:57.942Z,995.04
2022-10-04T07:54:57.927Z,995.03
2022-10-04T07:55:57.892Z,995.03
2022-10-04T07:56:57.895Z,995.04
2022-10-04T07:57:57.874Z,995.04
2022-10-04T07:58:57.868Z,995.04
2022-10-04T07:59:57.893Z,995.03
2022-10-04T08:00:57.863Z,995.02
2022-10-04T08:01:57.880Z,995.02
2022-10-04T08:02:57.935Z,995.03
2022-10-04T08:03:57.829Z,995.04
2022-10-04T08:04:57.840Z,995.03
2022-10-04T08:05:57.852Z,995.01
2022-10-04T08:06:57.813Z,994.99
2022-10-04T08:07:57.793Z,994.97
2022-10-04T08:08:57.867Z,994.97
2022-10-04T08:09:57.802Z,994.97
2022-10-04T08:10:57.821Z,994.98
2022-10-04T08:11:57.788Z,995.00
2022-10-04T08:12:57.766Z,995.02
2022-10-04T08:13:57.846Z,995.03
2022-10-04T08:14:57.732Z,995.00
2022-10-04T08:15:57.777Z,994.99
2022-10-04T08:16:57.751Z,994.99
2022-10-04T08:17:57.734Z,995.00
2022-10-04T08:18:57.710Z,995.01
2022-10-04T08:19:57.689Z,995.00
2022-10-04T08:20:57.687Z,994.99
2022-10-04T08:21:57.698Z,994.98
2022-10-04T08:22:57.675Z,994.97
2022-10-04T08:23:57.682Z,994.97
2022-10-04T08:24:57.664Z,994.98
2022-10-04T08:25:57.653Z,994.97
2022-10-04T08:26:57.641Z,994.95
2022-10-04T08:27:57.755Z,994.92
2022-10-04T08:28:57.642Z,994.91
2022-10-04T08:29:57.610Z,994.91
2022-10-04T08:30:57.635Z,994.93
2022-10-04T08:32:00.755Z,994.94
2022-10-04T08:32:58.604Z,994.95
2022-10-04T08:33:57.614Z,994.92
2022-10-04T08:34:57.568Z,994.89
2022-10-04T08:35:57.567Z,994.86
2022-10-04T08:36:57.566Z,994.84
2022-10-04T08:37:57.550Z,994.85
2022-10-04T08:38:57.548Z,994.85
2022-10-04T08:39:57.585Z,994.86
2022-10-04T08:40:57.524Z,994.87
2022-10-04T08:41:57.544Z,994.88
2022-10-04T08:42:57.515Z,994.89
2022-10-04T08:43:57.503Z,994.90
2022-10-04T08:44:57.520Z,994.90
2022-10-04T08:45:57.533Z,994.86
2022-10-04T08:46:57.476Z,994.85
2022-10-04T08:47:57.473Z,994.84
2022-10-04T08:48:57.453Z,994.83
2022-10-04T08:49:57.449Z,994.80
2022-10-04T08:50:57.470Z,994.78
2022-10-04T08:51:57.462Z,994.76
2022-10-04T08:52:57.434Z,994.74
2022-10-04T08:53:57.415Z,994.74
2022-10-04T08:54:57.420Z,994.73
2022-10-04T08:55:57.914Z,994.72
2022-10-04T08:56:57.476Z,994.71
2022-10-04T08:57:57.395Z,994.69
2022-10-04T08:58:57.381Z,994.68
2022-10-04T08:59:57.433Z,994.67
2022-10-04T09:00:57.359Z,994.68
2022-10-04T09:01:57.376Z,994.70
2022-10-04T09:02:57.466Z,994.69
2022-10-04T09:03:57.328Z,994.63
2022-10-04T09:04:57.326Z,994.64
2022-10-04T09:05:57.389Z,994.61
2022-10-04T09:06:57.307Z,994.61
2022-10-04T09:07:57.308Z,994.64
2022-10-04T09:08:57.286Z,994.66
2022-10-04T09:09:57.291Z,994.66
2022-10-04T09:10:57.338Z,994.68
2022-10-04T09:11:57.309Z,994.70
2022-10-04T09:12:57.270Z,994.73
2022-10-04T09:13:57.280Z,994.73
2022-10-04T09:14:57.274Z,994.74
2022-10-04T09:15:57.355Z,994.74
2022-10-04T09:16:57.234Z,994.75
2022-10-04T09:17:57.251Z,994.76
2022-10-04T09:18:57.261Z,994.72
2022-10-04T09:20:09.126Z,994.67
2022-10-04T09:20:58.219Z,994.65
2022-10-04T09:21:57.200Z,994.61
2022-10-04T09:22:57.195Z,994.60
2022-10-04T09:23:57.203Z,994.58
2022-10-04T09:24:57.182Z,994.58
2022-10-04T09:25:57.156Z,994.56
2022-10-04T09:26:57.135Z,994.55
2022-10-04T09:27:57.206Z,994.51
2022-10-04T09:29:01.109Z,994.50
2022-10-04T09:29:58.116Z,994.50
2022-10-04T09:30:57.200Z,994.47
2022-10-04T09:31:57.089Z,994.45
2022-10-04T09:32:57.086Z,994.44
2022-10-04T09:33:57.074Z,994.42
2022-10-04T09:34:57.108Z,994.42
2022-10-04T09:35:57.072Z,994.40
2022-10-04T09:36:57.054Z,994.39
2022-10-04T09:37:57.055Z,994.37
2022-10-04T09:39:17.832Z,994.38
2022-10-04T09:39:58.248Z,994.40
2022-10-04T09:40:57.025Z,994.40
2022-10-04T09:41:57.020Z,994.39
2022-10-04T09:42:57.201Z,994.40
2022-10-04T09:43:57.002Z,994.38
2022-10-04T09:44:57.020Z,994.37
2022-10-04T09:45:57.020Z,994.34
2022-10-04T09:46:57.083Z,994.33
2022-10-04T09:47:56.983Z,994.31
2022-10-04T09:48:56.971Z,994.33
2022-10-04T09:49:56.968Z,994.35
2022-10-04T09:50:56.978Z,994.35
2022-10-04T09:51:56.940Z,994.34
2022-10-04T09:52:56.958Z,994.34
2022-10-04T09:53:59.748Z,994.36
2022-10-04T09:55:15.434Z,994.37
2022-10-04T09:55:58.710Z,994.40
2022-10-04T09:56:59.245Z,994.44
2022-10-04T09:58:05.681Z,994.41
2022-10-04T09:59:19.492Z,994.38
2022-10-04T09:59:58.927Z,994.35
2022-10-04T10:03:01.945Z,994.26
2022-10-04T10:04:00.751Z,994.24
2022-10-04T10:05:00.592Z,994.22
2022-10-04T10:06:01.769Z,994.24
2022-10-04T10:07:00.539Z,994.24
2022-10-04T10:08:02.443Z,994.21
2022-10-04T10:09:08.845Z,994.20
2022-10-04T10:10:01.903Z,994.17
2022-10-04T10:11:02.578Z,994.17
2022-10-04T10:12:01.902Z,994.17
2022-10-04T10:13:02.850Z,994.17
2022-10-04T10:14:03.344Z,994.16
2022-10-04T10:15:04.846Z,994.17
2022-10-04T10:16:07.871Z,994.16
2022-10-04T10:17:01.351Z,994.14
2022-10-04T10:18:01.402Z,994.11
2022-10-04T10:19:00.627Z,994.10
2022-10-04T10:20:05.036Z,994.08
2022-10-04T10:21:04.485Z,994.09
2022-10-04T10:22:25.035Z,994.12
2022-10-04T10:23:02.348Z,994.13
2022-10-04T10:24:24.349Z,994.12
2022-10-04T10:25:04.460Z,994.13
2022-10-04T10:26:01.565Z,994.14
2022-10-04T10:27:01.854Z,994.14
2022-10-04T10:28:07.117Z,994.16
2022-10-04T10:29:02.677Z,994.15
2022-10-04T10:30:01.224Z,994.15
2022-10-04T10:32:28.591Z,994.15
2022-10-04T10:33:27.634Z,994.16
2022-10-04T10:34:27.717Z,994.09
2022-10-04T10:35:27.659Z,994.13
2022-10-04T10:36:30.553Z,994.13
2022-10-04T10:37:27.552Z,994.12
2022-10-04T10:38:31.211Z,994.15
2022-10-04T10:39:28.456Z,994.14
2022-10-04T10:40:27.490Z,994.13
2022-10-04T10:41:30.315Z,994.13
2022-10-04T10:42:27.674Z,994.14
2022-10-04T10:43:29.396Z,994.14
2022-10-04T10:44:28.452Z,994.13
2022-10-04T10:45:28.358Z,994.13
2022-10-04T10:46:27.672Z,994.07
2022-10-04T10:47:28.367Z,994.12
2022-10-04T10:48:29.316Z,994.10
2022-10-04T10:49:28.888Z,994.12
2022-10-04T10:50:29.472Z,994.11
2022-10-04T10:51:30.707Z,994.11
2022-10-04T10:52:28.040Z,994.11
2022-10-04T10:53:29.822Z,994.11
2022-10-04T10:54:29.864Z,994.08
2022-10-04T10:55:28.320Z,994.07
2022-10-04T10:56:30.177Z,994.04
2022-10-04T10:57:34.022Z,994.05
2022-10-04T10:58:28.532Z,994.02
2022-10-04T10:59:27.304Z,994.01
2022-10-04T11:00:27.330Z,993.98
2022-10-04T11:01:28.966Z,993.99
2022-10-04T11:02:48.233Z,993.97
2022-10-04T11:03:31.858Z,993.99
2022-10-04T11:04:28.823Z,993.99
2022-10-04T11:05:28.112Z,993.97
2022-10-04T11:06:28.096Z,993.90
2022-10-04T11:07:29.860Z,993.90
2022-10-04T11:08:28.827Z,993.88
2022-10-04T11:09:27.431Z,993.86
2022-10-04T11:10:27.827Z,993.82
2022-10-04T11:11:27.561Z,993.80
2022-10-04T11:12:27.215Z,993.82
2022-10-04T11:13:28.904Z,993.79
2022-10-04T11:14:27.827Z,993.82
2022-10-04T11:15:27.512Z,993.86
2022-10-04T11:16:27.850Z,993.79
2022-10-04T11:17:29.899Z,993.80
2022-10-04T11:18:28.828Z,993.81
2022-10-04T11:19:36.829Z,993.77
2022-10-04T11:20:28.106Z,993.74
2022-10-04T11:21:28.328Z,993.69
2022-10-04T11:22:28.832Z,993.68
2022-10-04T11:23:29.334Z,993.65
2022-10-04T11:24:28.401Z,993.66
2022-10-04T11:25:27.609Z,993.65
2022-10-04T11:26:31.835Z,993.63
2022-10-04T11:27:27.836Z,993.64
2022-10-04T11:28:28.866Z,993.65
2022-10-04T11:29:27.269Z,993.64
2022-10-04T11:30:28.338Z,993.61
2022-10-04T11:31:29.959Z,993.68
2022-10-04T11:32:29.340Z,993.65
2022-10-04T11:33:32.984Z,993.63
2022-10-04T11:34:30.073Z,993.61
2022-10-04T11:35:27.257Z,993.59
2022-10-04T11:36:30.260Z,993.57
2022-10-04T11:37:28.962Z,993.55
2022-10-04T11:38:27.839Z,993.56
2022-10-04T11:39:49.839Z,993.54
2022-10-04T11:40:36.874Z,993.56
2022-10-04T11:41:28.907Z,993.57
2022-10-04T11:42:29.591Z,993.56
2022-10-04T11:43:28.881Z,993.54
2022-10-04T11:44:28.354Z,993.53
2022-10-04T11:45:35.402Z,993.50
2022-10-04T11:46:31.902Z,993.52
2022-10-04T11:47:35.341Z,993.47
2022-10-04T11:48:28.482Z,993.49
2022-10-04T11:49:28.036Z,993.46
2022-10-04T11:50:28.842Z,993.44
2022-10-04T11:51:32.344Z,993.46
2022-10-04T11:52:27.841Z,993.45
2022-10-04T11:53:27.076Z,993.44
2022-10-04T11:54:26.929Z,993.46
2022-10-04T11:55:42.369Z,993.47
2022-10-04T11:56:50.853Z,993.49
2022-10-04T11:57:47.348Z,993.49
2022-10-04T11:58:44.917Z,993.48
2022-10-04T11:59:27.048Z,993.48
2022-10-04T12:00:27.893Z,993.49
2022-10-04T12:01:29.347Z,993.50
2022-10-04T12:02:28.350Z,993.51
2022-10-04T12:04:57.153Z,993.51
2022-10-04T12:05:55.721Z,993.51
2022-10-04T12:06:55.613Z,993.53
2022-10-04T12:07:55.691Z,993.53
2022-10-04T12:08:56.954Z,993.53
2022-10-04T12:10:00.798Z,993.55
2022-10-04T12:11:13.958Z,993.54
2022-10-04T12:13:24.727Z,993.54
2022-10-04T12:14:24.781Z,993.57
2022-10-04T12:15:25.629Z,993.56
2022-10-04T12:16:25.658Z,993.56
2022-10-04T12:17:24.826Z,993.53
2022-10-04T12:18:32.566Z,993.49
2022-10-04T12:19:24.639Z,993.47
2022-10-04T12:20:24.754Z,993.44
2022-10-04T12:21:26.189Z,993.42
2022-10-04T12:22:25.568Z,993.40
2022-10-04T12:23:28.027Z,993.35
2022-10-04T12:24:49.591Z,993.33
2022-10-04T12:25:25.239Z,993.34
2022-10-04T12:26:26.234Z,993.32
2022-10-04T12:27:25.612Z,993.33
2022-10-04T12:28:25.359Z,993.30
2022-10-04T12:29:27.033Z,993.30
2022-10-04T12:30:26.585Z,993.28
2022-10-04T12:31:25.075Z,993.27
2022-10-04T12:32:26.052Z,993.26
2022-10-04T12:33:24.571Z,993.20
2022-10-04T12:34:24.517Z,993.22